Data for 12/17/2014

Time Sea-Level Adjusted Pressure Absolute Pressure Temperature Relative Humidity Dew Point   
(mb) (inHg) (mb) (inHg) (C) (F) (%) (C) (F)
00:05 1016 30 845 24.95 -4.6 23.8 87 -6.5 20.3
00:10 1016 30 845 24.95 -4.6 23.8 87 -6.5 20.4
00:15 1016 30 845 24.95 -4.6 23.7 87 -6.5 20.3
00:20 1016 30 845 24.95 -4.7 23.6 87 -6.5 20.4
00:25 1016 30 845 24.95 -4.7 23.6 87 -6.5 20.4
00:30 1016 30 845 24.95 -4.7 23.6 87 -6.5 20.3
00:35 1016 30 845 24.95 -4.7 23.6 87 -6.5 20.3
00:40 1016 30 845 24.95 -4.7 23.5 87 -6.6 20.1
00:45 1016 30 845 24.95 -4.8 23.3 86 -6.8 19.8
00:50 1016 30 845 24.95 -4.6 23.6 85 -6.9 19.6
00:55 1016 30 845 24.95 -4.5 23.8 84 -6.8 19.7
01:00 1016 30 845 24.95 -4.4 24 84 -6.8 19.8
01:05 1016 30 845 24.95 -4.4 24.1 84 -6.7 19.9
01:10 1016 30 845 24.95 -4.3 24.2 84 -6.7 20
01:15 1016 30 845 24.95 -4.3 24.2 84 -6.6 20.1
01:20 1016 30 845 24.95 -4.4 24.1 84 -6.6 20.1
01:25 1016 30 845 24.95 -4.4 24 85 -6.6 20.1
01:30 1016 30 845 24.95 -4.5 23.9 86 -6.6 20.2
01:35 1016 30 845 24.95 -4.6 23.8 86 -6.6 20.2
01:40 1016 30 845 24.95 -4.6 23.7 86 -6.6 20.2
01:45 1015 29.97 845 24.95 -4.7 23.5 87 -6.6 20.1
01:50 1015 29.97 845 24.95 -4.8 23.3 87 -6.6 20.1
01:55 1015 29.97 845 24.95 -4.9 23.2 88 -6.7 20
02:00 1015 29.97 845 24.95 -5 23 88 -6.6 20.1
02:05 1015 29.97 845 24.95 -5.1 22.9 89 -6.7 20
02:10 1015 29.97 845 24.95 -5.1 22.8 89 -6.7 20
02:15 1015 29.97 845 24.95 -5.1 22.7 88 -6.9 19.7
02:20 1015 29.97 845 24.95 -5.2 22.6 88 -7 19.5
02:25 1015 29.97 845 24.95 -5.2 22.6 87 -7 19.4
02:30 1015 29.97 845 24.95 -5.2 22.6 88 -7 19.5
02:35 1015 29.97 845 24.95 -5.2 22.6 86 -7.1 19.1
02:40 1015 29.97 845 24.95 -5.2 22.7 87 -7 19.4
02:45 1015 29.97 845 24.95 -5.1 22.8 87 -6.9 19.6
02:50 1015 29.97 845 24.95 -5.2 22.7 86 -7.1 19.2
02:55 1015 29.97 845 24.95 -5.2 22.7 86 -7.2 19
03:00 1015 29.97 845 24.95 -5.2 22.6 84 -7.5 18.5
03:05 1015 29.97 845 24.95 -5.2 22.6 85 -7.4 18.7
03:10 1016 30 845 24.95 -5.1 22.8 85 -7.3 18.9
03:15 1016 30 845 24.95 -5.1 22.9 86 -7 19.3
03:20 1016 30 845 24.95 -5.1 22.8 88 -6.9 19.7
03:25 1016 30 845 24.95 -5.1 22.8 88 -6.8 19.7
03:30 1016 30 845 24.95 -5.3 22.5 87 -7.1 19.2
03:35 1016 30 845 24.95 -5.4 22.3 87 -7.2 19.1
03:40 1016 30 845 24.95 -5.5 22 87 -7.3 18.9
03:45 1016 30 845 24.95 -5.5 22.1 88 -7.2 19
03:50 1016 30 845 24.95 -5.4 22.2 88 -7.1 19.3
03:55 1016 30 845 24.95 -5.5 22.1 89 -7 19.3
04:00 1016 30 845 24.95 -5.5 22.1 90 -6.9 19.6
04:05 1016 30 845 24.95 -5.5 22.1 90 -6.8 19.8
04:10 1016 30 845 24.95 -5.5 22.2 90 -6.8 19.8
04:15 1016 30 845 24.95 -5.4 22.2 91 -6.7 19.9
04:20 1016 30 845 24.95 -5.5 22.1 91 -6.8 19.8
04:25 1016 30 845 24.95 -5.5 22.2 91 -6.7 20
04:30 1016 30 845 24.95 -5.4 22.3 92 -6.5 20.3
04:35 1016 30 845 24.95 -5.4 22.3 92 -6.5 20.2
04:40 1016 30 845 24.95 -5.3 22.4 92 -6.5 20.3
04:45 1016 30 845 24.95 -5.3 22.5 92 -6.4 20.5
04:50 1016 30 845 24.95 -5.3 22.5 92 -6.4 20.6
04:55 1016 30 845 24.95 -5.2 22.6 92 -6.2 20.8
05:00 1016 30 845 24.95 -5.1 22.8 92 -6.2 20.9
05:05 1016 30 845 24.95 -5 23 92 -6.1 21
05:10 1016 30 845 24.95 -5 23 93 -6 21.1
05:15 1016 30 845 24.95 -5 23.1 93 -6 21.2
05:20 1016 30 845 24.95 -4.9 23.1 93 -5.9 21.4
05:25 1016 30 845 24.95 -4.9 23.2 93 -5.9 21.4
05:30 1016 30 845 24.95 -4.9 23.2 93 -5.9 21.4
05:35 1015 29.97 845 24.95 -4.8 23.3 93 -5.8 21.6
05:40 1015 29.97 845 24.95 -4.8 23.4 93 -5.8 21.6
05:45 1015 29.97 845 24.95 -4.8 23.4 93 -5.7 21.7
05:50 1015 29.97 845 24.95 -4.7 23.6 93 -5.6 21.9
05:55 1015 29.97 845 24.95 -4.6 23.7 93 -5.5 22.1
06:00 1015 29.97 845 24.95 -4.5 23.9 93 -5.4 22.3
06:05 1015 29.97 845 24.95 -4.4 24 94 -5.3 22.5
06:10 1015 29.97 845 24.95 -4.3 24.2 94 -5.2 22.6
06:15 1015 29.97 845 24.95 -4.2 24.4 94 -5.1 22.8
06:20 1015 29.97 845 24.95 -4.2 24.5 94 -5.1 22.9
06:25 1015 29.97 845 24.95 -4.1 24.6 94 -5 23
06:30 1016 30 845 24.95 -4 24.8 94 -4.9 23.2
06:35 1016 30 845 24.95 -3.9 25 94 -4.7 23.5
06:40 1016 30 845 24.95 -3.9 25.1 94 -4.7 23.6
06:45 1016 30 845 24.95 -3.8 25.1 94 -4.6 23.6
06:50 1015 29.97 845 24.95 -3.7 25.3 94 -4.6 23.8
06:55 1015 29.97 845 24.95 -3.7 25.3 94 -4.5 23.8
07:00 1016 30 845 24.95 -3.6 25.5 94 -4.4 24
07:05 1016 30 845 24.95 -3.6 25.6 94 -4.4 24.1
07:10 1016 30 845 24.95 -3.5 25.7 94 -4.3 24.3
07:15 1016 30 845 24.95 -3.3 26 94 -4.1 24.5
07:20 1016 30 845 24.95 -3.3 26 94 -4.2 24.5
07:25 1016 30 845 24.95 -3.3 26.1 94 -4.1 24.6
07:30 1016 30 845 24.95 -3.2 26.2 94 -4.1 24.7
07:35 1016 30 845 24.95 -3.2 26.2 94 -4 24.8
07:40 1016 30 845 24.95 -3.2 26.2 94 -4 24.7
07:45 1016 30 845 24.95 -3.2 26.2 94 -4 24.8
07:50 1016 30 845 24.95 -3.2 26.3 94 -4 24.8
07:55 1016 30 845 24.95 -3.2 26.3 94 -4 24.9
08:00 1016 30 845 24.95 -3.2 26.3 94 -4 24.8
08:05 1016 30 845 24.95 -3.1 26.4 94 -3.9 25
08:10 1016 30 845 24.95 -3 26.7 95 -3.7 25.3
08:15 1016 30 845 24.95 -2.8 27 94 -3.6 25.6
08:20 1016 30 845 24.95 -2.8 27 94 -3.6 25.5
08:25 1016 30 845 24.95 -2.8 26.9 94 -3.6 25.5
08:30 1016 30 845 24.95 -2.8 27 94 -3.6 25.5
08:35 1016 30 845 24.95 -2.7 27.1 94 -3.5 25.7
08:40 1016 30 845 24.95 -2.7 27.1 94 -3.5 25.7
08:45 1016 30 845 24.95 -2.6 27.3 94 -3.5 25.8
08:50 1016 30 845 24.95 -2.7 27.2 94 -3.5 25.7
08:55 1016 30 845 24.95 -2.5 27.5 95 -3.3 26.1
09:00 1016 30 845 24.95 -2.2 28.1 94 -2.9 26.7
09:05 1016 30 845 24.95 -2 28.3 94 -2.9 26.8
09:10 1016 30 845 24.95 -1.8 28.7 94 -2.8 27
09:15 1016 30 845 24.95 -1.8 28.7 93 -2.8 27
09:20 1016 30 845 24.95 -1.6 29.1 89 -3.2 26.3
09:25 1016 30 845 24.95 -1.4 29.4 87 -3.2 26.2
09:30 1016 30 845 24.95 -1.4 29.5 86 -3.4 25.9
09:35 1016 30 845 24.95 -1.4 29.5 87 -3.3 26.1
09:40 1016 30 845 24.95 -1.4 29.5 88 -3.2 26.3
09:45 1016 30 845 24.95 -1.5 29.4 89 -3.1 26.5
09:50 1016 30 845 24.95 -1.4 29.4 88 -3.2 26.3
09:55 1016 30 845 24.95 -1.3 29.7 87 -3.2 26.2
10:00 1016 30 845 24.95 -1.2 29.9 86 -3.2 26.2
10:05 1016 30 845 24.95 -1 30.3 83 -3.5 25.7
10:10 1016 30 845 24.95 -0.7 30.7 83 -3.2 26.2
10:15 1016 30 845 24.95 -0.7 30.8 82 -3.3 26
10:20 1016 30 845 24.95 -0.6 30.8 82 -3.3 26.1
10:25 1016 30 845 24.95 -0.7 30.8 83 -3.1 26.4
10:30 1016 30 845 24.95 -0.7 30.7 84 -3.2 26.3
10:35 1016 30 845 24.95 -0.9 30.4 83 -3.4 25.9
10:40 1016 30 845 24.95 -0.8 30.6 82 -3.4 25.8
10:45 1016 30 845 24.95 -0.7 30.7 82 -3.4 25.9
10:50 1016 30 845 24.95 -0.8 30.7 84 -3.2 26.2
10:55 1016 30 845 24.95 -0.9 30.4 84 -3.3 26.1
11:00 1016 30 845 24.95 -0.8 30.5 83 -3.4 26
11:05 1016 30 845 24.95 -0.4 31.2 80 -3.5 25.7
11:10 1016 30 845 24.95 -0.1 31.8 79 -3.4 25.9
11:15 1016 30 845 24.95 0 32.1 78 -3.3 26
11:20 1016 30 845 24.95 0.2 32.4 78 -3.1 26.4
11:25 1016 30 845 24.95 0.6 33.2 76 -3 26.5
11:30 1016 30 845 24.95 1.1 33.9 73 -3.2 26.3
11:35 1016 30 845 24.95 1.4 34.5 72 -3.2 26.3
11:40 1016 30 845 24.95 1.6 34.9 69 -3.4 25.8
11:45 1016 30 845 24.95 1.8 35.2 70 -3.1 26.4
11:50 1016 30 845 24.95 2 35.6 69 -3.1 26.3
11:55 1016 30 845 24.95 2.1 35.8 68 -3.3 26.1
12:00 1016 30 845 24.95 2 35.5 69 -3.1 26.5
12:05 1016 30 845 24.95 1.9 35.4 68 -3.3 26
12:10 1016 30 845 24.95 1.9 35.5 68 -3.3 26.1
12:15 1016 30 845 24.95 1.7 35 70 -3.2 26.2
12:20 1016 30 845 24.95 1.8 35.2 69 -3.3 26.1
12:25 1016 30 845 24.95 2.1 35.8 68 -3.3 26.1
12:30 1016 30 845 24.95 2.1 35.8 68 -3.2 26.3
12:35 1016 30 845 24.95 2.3 36.2 68 -3 26.6
12:40 1015 29.97 845 24.95 2.3 36.1 68 -3 26.6
12:45 1015 29.97 845 24.95 1.8 35.2 71 -3 26.6
12:50 1015 29.97 845 24.95 1.8 35.2 77 -1.8 28.7
12:55 1015 29.97 845 24.95 1.1 34 79 -2.2 28
13:00 1015 29.97 845 24.95 0.6 33.2 75 -3.3 26.1
13:05 1015 29.97 845 24.95 0.6 33.1 77 -3 26.6
13:10 1015 29.97 844 24.92 1.1 34 73 -3.2 26.3
13:15 1015 29.97 844 24.92 1.3 34.3 72 -3.2 26.3
13:20 1015 29.97 844 24.92 1.5 34.7 73 -2.7 27.1
13:25 1015 29.97 844 24.92 1.5 34.8 72 -2.9 26.8
13:30 1015 29.97 844 24.92 1.7 35 70 -3.2 26.2
13:35 1015 29.97 844 24.92 1.7 35 71 -2.9 26.7
13:40 1015 29.97 844 24.92 1.5 34.6 70 -3.4 26
13:45 1015 29.97 844 24.92 1.5 34.8 70 -3.4 25.9
13:50 1015 29.97 844 24.92 1.9 35.5 67 -3.5 25.7
13:55 1015 29.97 844 24.92 2.4 36.4 66 -3.2 26.2
14:00 1015 29.97 844 24.92 3.1 37.6 61 -3.6 25.5
14:05 1015 29.97 844 24.92 3.4 38 58 -4.1 24.5
14:10 1015 29.97 844 24.92 4.6 40.3 57 -3.2 26.3
14:15 1015 29.97 844 24.92 5.2 41.3 55 -3 26.5
14:20 1015 29.97 844 24.92 5.1 41.1 55 -3.4 26
14:25 1015 29.97 844 24.92 4.7 40.4 60 -2.4 27.7
14:30 1015 29.97 844 24.92 3.1 37.6 65 -2.8 27
14:35 1015 29.97 844 24.92 2.9 37.2 64 -3.2 26.3
14:40 1015 29.97 844 24.92 3 37.3 65 -2.9 26.7
14:45 1015 29.97 844 24.92 2.7 36.8 66 -3 26.5
14:50 1015 29.97 844 24.92 3.2 37.8 61 -3.5 25.6
14:55 1014 29.94 844 24.92 4.1 39.4 58 -3.4 25.9
15:00 1014 29.94 844 24.92 4.1 39.4 59 -3.2 26.2
15:05 1014 29.94 844 24.92 4.1 39.3 59 -3.2 26.3
15:10 1014 29.94 844 24.92 4.2 39.5 58 -3.4 25.8
15:15 1014 29.94 844 24.92 4.1 39.4 57 -3.6 25.5
15:20 1014 29.94 844 24.92 4.5 40.1 57 -3.4 25.9
15:25 1014 29.94 844 24.92 5.1 41.2 53 -3.7 25.4
15:30 1014 29.94 844 24.92 5.4 41.8 51 -3.8 25.1
15:35 1014 29.94 844 24.92 5.9 42.6 50 -3.7 25.3
15:40 1014 29.94 844 24.92 5.3 41.5 54 -3.2 26.2
15:45 1014 29.94 844 24.92 4.2 39.5 58 -3.3 26.1
15:50 1015 29.97 844 24.92 3.1 37.5 59 -4.1 24.6
15:55 1015 29.97 844 24.92 3.2 37.7 60 -3.8 25.1
16:00 1015 29.97 844 24.92 3 37.3 58 -4.5 23.9
16:05 1015 29.97 844 24.92 3.5 38.3 55 -4.7 23.5
16:10 1015 29.97 844 24.92 3.9 39.1 53 -4.8 23.3
16:15 1015 29.97 844 24.92 4.1 39.5 52 -4.9 23.2
16:20 1015 29.97 844 24.92 4.3 39.7 53 -4.6 23.8
16:25 1015 29.97 844 24.92 4.4 40 54 -4 24.9
16:30 1015 29.97 844 24.92 4.2 39.5 55 -4 24.9
16:35 1015 29.97 844 24.92 4.1 39.4 56 -3.9 24.9
16:40 1015 29.97 844 24.92 4.3 39.8 51 -4.8 23.3
16:45 1015 29.97 844 24.92 3.9 39 56 -4.1 24.6
16:50 1015 29.97 844 24.92 3.5 38.3 57 -4.2 24.4
16:55 1015 29.97 844 24.92 3.4 38.2 56 -4.5 24
17:00 1015 29.97 844 24.92 3.3 37.9 56 -4.7 23.5
17:05 1015 29.97 844 24.92 2.8 37.1 64 -3.4 25.9
17:10 1015 29.97 844 24.92 2 35.7 68 -3.2 26.3
17:15 1015 29.97 844 24.92 1.5 34.7 69 -3.5 25.7
17:20 1015 29.97 844 24.92 1.3 34.3 71 -3.5 25.7
17:25 1015 29.97 844 24.92 1.1 34 72 -3.5 25.7
17:30 1015 29.97 844 24.92 0.8 33.4 73 -3.4 25.8
17:35 1015 29.97 844 24.92 0.2 32.4 75 -3.6 25.5
17:40 1015 29.97 844 24.92 -0.3 31.4 76 -4 24.7
17:45 1015 29.97 844 24.92 -0.6 30.9 77 -4.1 24.5
17:50 1015 29.97 844 24.92 -0.7 30.7 77 -4.2 24.4
17:55 1015 29.97 844 24.92 -1 30.2 78 -4.4 24.1
18:00 1015 29.97 844 24.92 -1.1 30 78 -4.5 23.8
18:05 1015 29.97 844 24.92 -1.1 30 76 -4.9 23.2
18:10 1015 29.97 844 24.92 -1.2 29.8 75 -5.1 22.9
18:15 1015 29.97 844 24.92 -1.5 29.2 78 -5 23.1
18:20 1015 29.97 844 24.92 -1.9 28.5 78 -5.3 22.4
18:25 1015 29.97 844 24.92 -1.8 28.7 74 -6 21.3
18:30 1015 29.97 844 24.92 -1.5 29.3 71 -6.1 21.1
18:35 1015 29.97 844 24.92 -1.9 28.6 73 -6 21.1
18:40 1015 29.97 844 24.92 -2.2 28 76 -5.9 21.4
18:45 1015 29.97 844 24.92 -2.5 27.4 75 -6.4 20.4
18:50 1015 29.97 844 24.92 -2.3 27.9 75 -6.2 20.8
18:55 1015 29.97 844 24.92 -2.6 27.4 77 -6 21.3
19:00 1015 29.97 844 24.92 -2.8 26.9 79 -6 21.2
19:05 1015 29.97 844 24.92 -2.9 26.8 80 -5.9 21.3
19:10 1015 29.97 844 24.92 -2.8 26.9 79 -5.9 21.3
19:15 1015 29.97 844 24.92 -2.9 26.7 80 -5.9 21.3
19:20 1015 29.97 844 24.92 -2.9 26.8 80 -5.9 21.4
19:25 1015 29.97 844 24.92 -2.8 27 80 -5.8 21.6
19:30 1015 29.97 844 24.92 -3.2 26.3 79 -6.2 20.8
19:35 1015 29.97 844 24.92 -3.8 25.2 81 -6.5 20.2
19:40 1015 29.97 844 24.92 -3.5 25.6 79 -6.7 20
19:45 1015 29.97 844 24.92 -3.1 26.4 76 -6.8 19.7
19:50 1015 29.97 844 24.92 -3.1 26.4 76 -6.8 19.7
19:55 1015 29.97 844 24.92 -3.2 26.2 74 -7.2 19.1
20:00 1015 29.97 844 24.92 -3 26.5 74 -7 19.3
20:05 1015 29.97 845 24.95 -2.8 27.1 73 -6.9 19.7
20:10 1015 29.97 845 24.95 -2.8 26.9 75 -6.7 20
20:15 1015 29.97 845 24.95 -3.2 26.3 76 -6.7 19.9
20:20 1015 29.97 845 24.95 -3.3 26.1 77 -6.8 19.7
20:25 1015 29.97 845 24.95 -3.4 25.9 77 -6.9 19.6
20:30 1015 29.97 845 24.95 -3.5 25.6 78 -6.9 19.6
20:35 1016 30 845 24.95 -3.8 25.2 79 -7 19.4
20:40 1016 30 845 24.95 -4 24.9 79 -7.1 19.3
20:45 1016 30 845 24.95 -4 24.7 79 -7.2 19
20:50 1016 30 845 24.95 -4 24.8 78 -7.3 18.8
20:55 1016 30 845 24.95 -3.8 25.2 77 -7.3 18.9
21:00 1016 30 845 24.95 -3.7 25.4 76 -7.3 18.8
21:05 1016 30 845 24.95 -3.7 25.3 77 -7.2 19
21:10 1016 30 845 24.95 -4.1 24.6 78 -7.5 18.5
21:15 1016 30 845 24.95 -4.2 24.4 77 -7.7 18.2
21:20 1016 30 845 24.95 -4.1 24.7 76 -7.7 18.2
21:25 1016 30 845 24.95 -3.8 25.1 74 -7.7 18.1
21:30 1016 30 845 24.95 -3.4 25.9 72 -7.8 18
21:35 1016 30 845 24.95 -3.6 25.4 74 -7.6 18.4
21:40 1016 30 845 24.95 -4.2 24.5 76 -7.8 17.9
21:45 1016 30 845 24.95 -4.5 24 77 -7.9 17.7
21:50 1016 30 845 24.95 -4.6 23.6 76 -8.2 17.2
21:55 1016 30 845 24.95 -4.5 23.9 76 -8.2 17.3
22:00 1016 30 845 24.95 -4.6 23.8 77 -8 17.6
22:05 1016 30 845 24.95 -5 23 78 -8.3 17.1
22:10 1016 30 845 24.95 -4.6 23.8 77 -8.1 17.5
22:15 1016 30 845 24.95 -4.2 24.4 77 -7.8 18
22:20 1016 30 845 24.95 -4.4 24.1 76 -8 17.6
22:25 1016 30 845 24.95 -4.4 24.1 75 -8.2 17.3
22:30 1016 30 845 24.95 -4.2 24.4 76 -7.9 17.8
22:35 1016 30 845 24.95 -4.5 23.9 75 -8.3 17
22:40 1016 30 845 24.95 -4.1 24.6 73 -8.2 17.2
22:45 1016 30 845 24.95 -4.3 24.3 74 -8.3 17
22:50 1016 30 845 24.95 -4.5 23.9 72 -8.8 16.2
22:55 1016 30 845 24.95 -4.6 23.7 73 -8.8 16.2
23:00 1016 30 845 24.95 -4.8 23.3 74 -8.8 16.2
23:05 1016 30 845 24.95 -4.3 24.2 74 -8.3 17
23:10 1016 30 845 24.95 -4.2 24.4 71 -8.6 16.4
23:15 1016 30 845 24.95 -4.4 24.1 73 -8.6 16.6
23:20 1016 30 845 24.95 -4.7 23.5 74 -8.8 16.2
23:25 1016 30 846 24.98 -4.9 23.2 74 -8.8 16.1
23:30 1016 30 846 24.98 -5.3 22.5 75 -8.9 15.9
23:35 1016 30 846 24.98 -5.1 22.7 75 -8.9 15.9
23:40 1016 30 845 24.95 -5.1 22.9 75 -8.9 15.9
23:45 1016 30 846 24.98 -5.1 22.8 75 -8.9 15.9
23:50 1016 30 846 24.98 -5.1 22.7 74 -9.1 15.6
23:55 1016 30 846 24.98 -5 23 74 -9 15.8
24:00 1016 30 846 24.98 -5.3 22.5 74 -9.2 15.5